createdAt,value
2022-08-10T00:00:22.488Z,4.80
2022-08-10T00:01:55.916Z,4.67
2022-08-10T00:03:29.442Z,5.07
2022-08-10T00:05:03.232Z,4.67
2022-08-10T00:06:36.412Z,5.10
2022-08-10T00:08:09.533Z,5.27
2022-08-10T00:09:50.563Z,5.13
2022-08-10T00:11:24.678Z,4.53
2022-08-10T00:12:58.026Z,5.30
2022-08-10T00:14:30.268Z,5.57
2022-08-10T00:16:03.517Z,5.17
2022-08-10T00:17:37.045Z,4.77
2022-08-10T00:19:10.640Z,5.10
2022-08-10T00:20:44.108Z,5.10
2022-08-10T00:22:17.253Z,5.23
2022-08-10T00:23:50.408Z,4.90
2022-08-10T00:25:22.584Z,5.30
2022-08-10T00:27:52.603Z,5.33
2022-08-10T00:28:48.805Z,5.03
2022-08-10T00:30:21.185Z,5.27
2022-08-10T00:31:58.986Z,4.97
2022-08-10T00:33:32.506Z,5.33
2022-08-10T00:35:06.808Z,5.17
2022-08-10T00:36:39.936Z,5.17
2022-08-10T00:38:13.189Z,4.87
2022-08-10T00:39:47.360Z,4.93
2022-08-10T00:41:20.577Z,4.90
2022-08-10T00:42:56.970Z,5.37
2022-08-10T00:44:30.105Z,5.17
2022-08-10T00:46:04.108Z,5.33
2022-08-10T00:47:37.810Z,5.33
2022-08-10T00:49:11.114Z,5.93
2022-08-10T00:50:45.676Z,6.13
2022-08-10T00:52:20.789Z,5.57
2022-08-10T00:53:53.936Z,5.80
2022-08-10T00:55:28.225Z,5.63
2022-08-10T00:57:17.524Z,5.70
2022-08-10T00:58:51.697Z,5.63
2022-08-10T01:00:25.191Z,5.73
2022-08-10T01:02:09.501Z,5.70
2022-08-10T01:04:36.311Z,6.07
2022-08-10T01:05:51.386Z,5.53
2022-08-10T01:07:43.085Z,6.33
2022-08-10T01:09:24.899Z,6.93
2022-08-10T01:12:27.668Z,6.77
2022-08-10T01:13:10.532Z,5.77
2022-08-10T01:14:52.945Z,5.93
2022-08-10T01:16:30.560Z,5.20
2022-08-10T01:18:08.540Z,5.80
2022-08-10T01:19:58.498Z,5.90
2022-08-10T01:22:07.872Z,6.17
2022-08-10T01:24:15.614Z,5.93
2022-08-10T01:26:11.767Z,5.60
2022-08-10T01:27:56.656Z,5.77
2022-08-10T01:29:49.225Z,7.00
2022-08-10T01:31:28.846Z,6.63
2022-08-10T01:33:08.284Z,6.40
2022-08-10T01:34:45.167Z,6.87
2022-08-10T01:36:31.842Z,6.70
2022-08-10T01:38:09.952Z,7.03
2022-08-10T01:39:48.162Z,6.33
2022-08-10T01:41:26.117Z,6.53
2022-08-10T01:43:07.916Z,6.40
2022-08-10T01:44:49.008Z,6.67
2022-08-10T01:46:25.117Z,5.87
2022-08-10T01:48:18.051Z,6.67
2022-08-10T01:49:54.083Z,6.53
2022-08-10T01:51:32.720Z,6.47
2022-08-10T01:53:09.520Z,6.23
2022-08-10T01:54:44.584Z,6.30
2022-08-10T01:56:18.985Z,6.10
2022-08-10T01:57:53.608Z,6.50
2022-08-10T01:59:32.207Z,6.77
2022-08-10T02:01:08.787Z,5.90
2022-08-10T02:02:45.030Z,5.73
2022-08-10T02:04:20.601Z,5.90
2022-08-10T02:05:55.609Z,6.20
2022-08-10T02:07:31.609Z,5.70
2022-08-10T02:09:07.618Z,6.50
2022-08-10T02:10:43.907Z,5.97
2022-08-10T02:12:21.283Z,6.50
2022-08-10T02:13:54.813Z,6.10
2022-08-10T02:15:33.551Z,5.63
2022-08-10T02:17:59.431Z,5.83
2022-08-10T02:19:06.378Z,6.30
2022-08-10T02:20:47.428Z,5.73
2022-08-10T02:22:36.155Z,5.80
2022-08-10T02:24:13.757Z,6.10
2022-08-10T02:25:47.171Z,5.90
2022-08-10T02:27:22.348Z,5.60
2022-08-10T02:28:56.581Z,5.60
2022-08-10T02:30:30.514Z,5.80
2022-08-10T02:32:05.625Z,6.07
2022-08-10T02:33:56.556Z,5.87
2022-08-10T02:35:42.170Z,5.70
2022-08-10T02:37:27.686Z,6.03
2022-08-10T02:39:05.528Z,6.03
2022-08-10T02:45:14.006Z,6.50
2022-08-10T02:45:19.059Z,6.33
2022-08-10T02:45:19.470Z,5.80
2022-08-10T02:46:53.252Z,5.43
2022-08-10T02:48:35.773Z,5.97
2022-08-10T02:50:15.974Z,6.30
2022-08-10T02:52:06.584Z,6.07
2022-08-10T02:53:56.155Z,5.53
2022-08-10T02:55:36.563Z,6.30
2022-08-10T02:57:15.328Z,6.37
2022-08-10T02:58:57.593Z,5.90
2022-08-10T03:00:31.587Z,5.93
2022-08-10T03:02:07.294Z,6.30
2022-08-10T03:03:48.401Z,6.40
2022-08-10T03:05:23.106Z,6.30
2022-08-10T03:07:03.771Z,6.30
2022-08-10T03:08:42.225Z,5.70
2022-08-10T03:10:17.699Z,6.43
2022-08-10T03:12:35.711Z,6.47
2022-08-10T03:13:52.433Z,6.40
2022-08-10T03:15:37.251Z,6.70
2022-08-10T03:17:11.229Z,6.27
2022-08-10T03:18:45.776Z,6.30
2022-08-10T03:20:37.956Z,6.33
2022-08-10T03:22:13.627Z,6.20
2022-08-10T03:23:47.433Z,6.30
2022-08-10T03:25:24.773Z,6.43
2022-08-10T03:26:59.280Z,7.00
2022-08-10T03:28:33.290Z,6.87
2022-08-10T03:30:29.511Z,6.20
2022-08-10T03:32:03.614Z,6.60
2022-08-10T03:33:39.765Z,6.77
2022-08-10T03:35:13.775Z,5.80
2022-08-10T03:36:48.600Z,7.20
2022-08-10T03:38:22.465Z,6.70
2022-08-10T03:39:56.063Z,7.47
2022-08-10T03:41:35.595Z,6.87
2022-08-10T03:43:12.611Z,7.13
2022-08-10T03:44:50.351Z,7.47
2022-08-10T03:46:26.211Z,7.40
2022-08-10T03:48:00.032Z,8.00
2022-08-10T03:49:34.428Z,7.77
2022-08-10T03:51:08.465Z,7.10
2022-08-10T03:52:42.965Z,6.73
2022-08-10T03:54:16.692Z,7.30
2022-08-10T03:56:28.844Z,7.30
2022-08-10T03:57:49.718Z,7.23
2022-08-10T03:59:23.455Z,7.57
2022-08-10T04:00:56.138Z,7.43
2022-08-10T04:02:42.015Z,6.77
2022-08-10T04:04:24.756Z,6.93
2022-08-10T04:05:59.318Z,6.80
2022-08-10T04:07:32.820Z,7.23
2022-08-10T04:09:07.445Z,7.07
2022-08-10T04:10:39.645Z,6.87
2022-08-10T04:12:12.862Z,7.00
2022-08-10T04:13:45.137Z,6.70
2022-08-10T04:15:18.414Z,7.03
2022-08-10T04:16:51.576Z,6.90
2022-08-10T04:18:24.811Z,7.10
2022-08-10T04:19:59.507Z,7.07
2022-08-10T04:21:40.019Z,6.57
2022-08-10T04:23:17.983Z,6.67
2022-08-10T04:24:57.220Z,6.63
2022-08-10T04:26:30.709Z,6.93
2022-08-10T04:28:04.704Z,6.30
2022-08-10T04:29:38.158Z,6.97
2022-08-10T04:31:15.639Z,6.37
2022-08-10T04:32:54.899Z,6.63
2022-08-10T04:34:32.394Z,7.20
2022-08-10T04:36:09.638Z,6.60
2022-08-10T04:37:47.108Z,6.30
2022-08-10T04:39:21.995Z,6.60
2022-08-10T04:40:57.660Z,6.00
2022-08-10T04:42:30.682Z,6.50
2022-08-10T04:44:04.369Z,6.30
2022-08-10T04:45:49.357Z,6.47
2022-08-10T04:47:57.417Z,6.20
2022-08-10T04:49:55.680Z,6.40
2022-08-10T04:51:18.342Z,5.73
2022-08-10T04:52:52.572Z,5.47
2022-08-10T04:54:26.192Z,5.73
2022-08-10T04:56:03.915Z,6.30
2022-08-10T04:57:37.070Z,5.50
2022-08-10T04:59:12.412Z,5.10
2022-08-10T05:00:44.684Z,5.87
2022-08-10T05:02:28.934Z,5.87
2022-08-10T05:04:37.569Z,6.00
2022-08-10T05:05:57.571Z,5.60
2022-08-10T05:07:43.385Z,5.50
2022-08-10T05:09:27.318Z,5.60
2022-08-10T05:11:00.479Z,5.53
2022-08-10T05:12:37.478Z,5.33
2022-08-10T05:14:11.654Z,5.60
2022-08-10T05:15:45.930Z,5.30
2022-08-10T05:17:18.175Z,5.73
2022-08-10T05:18:51.353Z,5.30
2022-08-10T05:20:24.653Z,5.27
2022-08-10T05:22:04.636Z,6.00
2022-08-10T05:23:38.347Z,5.73
2022-08-10T05:25:14.371Z,5.47
2022-08-10T05:26:55.283Z,5.60
2022-08-10T05:28:41.163Z,5.30
2022-08-10T05:30:16.124Z,5.17
2022-08-10T05:31:48.483Z,5.30
2022-08-10T05:33:21.682Z,4.93
2022-08-10T05:34:54.856Z,5.17
2022-08-10T05:36:28.539Z,5.83
2022-08-10T05:38:08.860Z,5.60
2022-08-10T05:39:47.444Z,5.20
2022-08-10T05:41:21.807Z,5.30
2022-08-10T05:42:55.095Z,5.00
2022-08-10T05:44:30.376Z,4.93
2022-08-10T05:46:17.054Z,5.13
2022-08-10T05:48:54.416Z,5.80
2022-08-10T05:49:49.223Z,4.77
2022-08-10T05:51:23.120Z,4.77
2022-08-10T05:52:56.497Z,4.80
2022-08-10T05:54:29.709Z,4.67
2022-08-10T05:56:05.178Z,4.40
2022-08-10T05:57:38.540Z,4.40
2022-08-10T05:59:11.230Z,5.07
2022-08-10T06:00:54.453Z,4.13
2022-08-10T06:02:35.700Z,3.90
2022-08-10T06:04:12.868Z,3.60
2022-08-10T06:05:51.079Z,4.27
2022-08-10T06:07:32.680Z,4.43
2022-08-10T06:09:16.884Z,4.00
2022-08-10T06:12:24.215Z,3.80
2022-08-10T06:13:26.907Z,3.80
2022-08-10T06:15:04.077Z,4.10
2022-08-10T06:16:40.155Z,3.87
2022-08-10T06:18:14.802Z,3.93
2022-08-10T06:19:48.505Z,4.40
2022-08-10T06:21:22.407Z,3.70
2022-08-10T06:22:55.896Z,4.30
2022-08-10T06:24:30.767Z,4.10
2022-08-10T06:26:10.583Z,3.73
2022-08-10T06:27:48.147Z,4.00
2022-08-10T06:29:23.125Z,3.50
2022-08-10T06:30:57.773Z,3.70
2022-08-10T06:32:32.691Z,3.73
2022-08-10T06:34:05.447Z,3.60
2022-08-10T06:35:40.415Z,3.60
2022-08-10T06:37:16.598Z,4.47
2022-08-10T06:38:50.822Z,3.60
2022-08-10T06:40:27.082Z,3.77
2022-08-10T06:42:16.070Z,4.63
2022-08-10T06:43:57.725Z,3.80
2022-08-10T06:45:36.396Z,3.90
2022-08-10T06:47:11.533Z,4.07
2022-08-10T06:48:51.754Z,3.80
2022-08-10T06:50:34.843Z,3.73
2022-08-10T06:52:22.353Z,3.90
2022-08-10T06:53:59.451Z,3.40
2022-08-10T06:55:49.683Z,3.40
2022-08-10T06:57:29.404Z,3.80
2022-08-10T06:59:07.945Z,3.73
2022-08-10T07:00:48.794Z,3.57
2022-08-10T07:02:31.233Z,3.57
2022-08-10T07:04:11.697Z,4.03
2022-08-10T07:05:51.042Z,3.40
2022-08-10T07:07:28.015Z,3.63
2022-08-10T07:09:02.005Z,3.60
2022-08-10T07:10:41.174Z,3.07
2022-08-10T07:12:21.977Z,3.00
2022-08-10T07:14:17.397Z,3.20
2022-08-10T07:16:00.071Z,3.30
2022-08-10T07:17:39.463Z,2.78
2022-08-10T07:19:15.926Z,2.80
2022-08-10T07:20:50.892Z,4.10
2022-08-10T07:23:27.001Z,3.43
2022-08-10T07:24:21.408Z,2.80
2022-08-10T07:25:54.885Z,3.35
2022-08-10T07:27:29.669Z,3.20
2022-08-10T07:29:53.507Z,2.90
2022-08-10T07:31:32.941Z,2.55
2022-08-10T07:33:17.893Z,3.10
2022-08-10T07:34:54.815Z,2.75
2022-08-10T07:36:30.151Z,3.00
2022-08-10T07:38:04.923Z,2.88
2022-08-10T07:40:02.459Z,2.95
2022-08-10T07:41:35.605Z,2.95
2022-08-10T07:43:10.794Z,2.75
2022-08-10T07:44:45.609Z,2.70
2022-08-10T07:46:23.264Z,2.97
2022-08-10T07:48:06.678Z,2.67
2022-08-10T07:49:44.617Z,2.45
2022-08-10T07:51:20.920Z,2.85
2022-08-10T07:52:56.472Z,2.72
2022-08-10T07:54:32.089Z,2.70
2022-08-10T07:56:21.220Z,3.00
2022-08-10T07:58:04.085Z,2.72
2022-08-10T07:59:39.490Z,3.00
2022-08-10T08:01:14.951Z,2.90
2022-08-10T08:02:56.178Z,2.80
2022-08-10T08:04:31.239Z,3.03
2022-08-10T08:06:11.885Z,3.10
2022-08-10T08:07:47.581Z,2.72
2022-08-10T08:09:23.045Z,2.72
2022-08-10T08:10:58.145Z,2.70
2022-08-10T08:12:37.218Z,3.40
2022-08-10T08:14:13.899Z,2.55
2022-08-10T08:16:18.438Z,3.60
2022-08-10T08:17:43.069Z,2.80
2022-08-10T08:19:37.570Z,2.83
2022-08-10T08:24:05.291Z,3.50
2022-08-10T08:24:07.235Z,2.70
2022-08-10T08:25:01.603Z,2.70
2022-08-10T08:26:37.353Z,2.85
2022-08-10T08:28:11.532Z,2.90
2022-08-10T08:29:46.818Z,2.85
2022-08-10T08:31:21.381Z,3.10
2022-08-10T08:32:55.014Z,3.65
2022-08-10T08:34:28.706Z,3.28
2022-08-10T08:36:02.285Z,2.97
2022-08-10T08:38:33.505Z,3.00
2022-08-10T08:39:33.228Z,2.67
2022-08-10T08:41:26.967Z,2.65
2022-08-10T08:43:16.695Z,3.03
2022-08-10T08:45:03.097Z,3.47
2022-08-10T08:46:59.260Z,2.63
2022-08-10T08:48:47.440Z,2.95
2022-08-10T08:50:37.981Z,2.90
2022-08-10T08:52:22.818Z,2.47
2022-08-10T08:54:05.591Z,2.78
2022-08-10T08:56:05.439Z,2.35
2022-08-10T08:57:51.258Z,2.65
2022-08-10T08:59:38.406Z,2.40
2022-08-10T09:01:24.504Z,2.38
2022-08-10T09:03:47.249Z,2.30
2022-08-10T09:05:58.875Z,2.55
2022-08-10T09:08:02.840Z,2.17
2022-08-10T09:09:57.389Z,2.30
2022-08-10T09:11:51.819Z,2.13
2022-08-10T09:13:31.435Z,2.08
2022-08-10T09:15:09.939Z,2.10
2022-08-10T09:17:12.066Z,1.90
2022-08-10T09:18:52.255Z,2.05
2022-08-10T09:20:35.813Z,2.10
2022-08-10T09:22:19.332Z,2.38
2022-08-10T09:24:05.921Z,2.40
2022-08-10T09:25:45.185Z,2.10
2022-08-10T09:27:22.798Z,2.00
2022-08-10T09:29:12.250Z,1.95
2022-08-10T09:31:18.818Z,1.83
2022-08-10T09:36:13.563Z,2.38
2022-08-10T09:36:22.288Z,1.90
2022-08-10T09:36:57.110Z,1.75
2022-08-10T09:38:38.684Z,1.88
2022-08-10T09:41:00.074Z,2.40
2022-08-10T09:42:19.319Z,2.70
2022-08-10T09:44:07.208Z,2.55
2022-08-10T09:45:48.854Z,2.47
2022-08-10T09:47:58.687Z,2.50
2022-08-10T09:49:54.338Z,2.53
2022-08-10T09:51:46.312Z,2.43
2022-08-10T09:53:26.157Z,2.80
2022-08-10T09:55:11.132Z,2.77
2022-08-10T09:56:52.895Z,2.60
2022-08-10T09:58:37.586Z,2.60
2022-08-10T10:00:15.459Z,2.70
2022-08-10T10:02:02.417Z,2.40
2022-08-10T10:03:48.081Z,2.60
2022-08-10T10:05:34.051Z,2.57
2022-08-10T10:07:09.630Z,2.70
2022-08-10T10:08:53.721Z,2.60
2022-08-10T10:10:46.128Z,2.83
2022-08-10T10:12:28.075Z,2.60
2022-08-10T10:14:13.812Z,2.57
2022-08-10T10:15:57.929Z,2.50
2022-08-10T10:17:44.379Z,3.13
2022-08-10T10:19:30.730Z,2.70
2022-08-10T10:21:08.246Z,2.50
2022-08-10T10:22:57.660Z,2.67
2022-08-10T10:24:42.590Z,2.73
2022-08-10T10:26:22.084Z,2.80
2022-08-10T10:28:11.037Z,2.60
2022-08-10T10:29:58.566Z,2.50
2022-08-10T10:31:40.173Z,2.30
2022-08-10T10:33:16.484Z,2.60
2022-08-10T10:34:56.987Z,2.40
2022-08-10T10:36:31.587Z,2.20
2022-08-10T10:38:07.453Z,2.40
2022-08-10T10:39:44.653Z,2.40
2022-08-10T10:41:30.790Z,2.23
2022-08-10T10:43:41.013Z,2.50
2022-08-10T10:45:20.600Z,2.57
2022-08-10T10:46:59.315Z,2.60
2022-08-10T10:48:43.123Z,2.75
2022-08-10T10:50:23.297Z,2.20
2022-08-10T10:52:04.681Z,2.25
2022-08-10T10:53:45.351Z,2.35
2022-08-10T10:55:29.341Z,2.33
2022-08-10T10:57:08.464Z,2.78
2022-08-10T10:58:49.877Z,2.63
2022-08-10T11:00:27.058Z,2.33
2022-08-10T11:02:20.075Z,2.67
2022-08-10T11:04:10.041Z,2.22
2022-08-10T11:05:50.814Z,2.35
2022-08-10T11:07:31.817Z,2.75
2022-08-10T11:10:03.737Z,2.20
2022-08-10T11:11:21.629Z,2.50
2022-08-10T11:14:25.226Z,2.38
2022-08-10T11:15:27.945Z,2.30
2022-08-10T11:17:12.367Z,2.40
2022-08-10T11:18:59.958Z,2.28
2022-08-10T11:20:41.400Z,2.60
2022-08-10T11:22:21.136Z,2.70
2022-08-10T11:24:42.505Z,2.50
2022-08-10T11:26:09.016Z,2.80
2022-08-10T11:27:49.763Z,2.38
2022-08-10T11:29:30.601Z,2.58
2022-08-10T11:31:12.196Z,2.67
2022-08-10T11:33:11.569Z,2.38
2022-08-10T11:35:11.626Z,2.88
2022-08-10T11:36:56.479Z,2.47
2022-08-10T11:38:52.019Z,2.70
2022-08-10T11:40:38.325Z,2.67
2022-08-10T11:42:36.409Z,2.10
2022-08-10T11:44:13.253Z,2.33
2022-08-10T11:45:51.363Z,2.40
2022-08-10T11:47:45.962Z,2.53
2022-08-10T11:49:31.027Z,2.63
2022-08-10T11:51:07.423Z,2.88
2022-08-10T11:52:54.639Z,2.45
2022-08-10T11:54:32.207Z,2.60
2022-08-10T11:56:10.954Z,2.75
2022-08-10T11:57:53.453Z,2.60
2022-08-10T11:59:49.196Z,2.77
2022-08-10T12:01:28.625Z,2.80
2022-08-10T12:03:07.356Z,2.57
2022-08-10T12:04:46.479Z,2.50
2022-08-10T12:06:52.016Z,2.80
2022-08-10T12:10:07.578Z,2.43
2022-08-10T12:10:14.366Z,2.40
2022-08-10T12:11:50.317Z,2.83
2022-08-10T12:13:27.395Z,2.80
2022-08-10T12:15:04.595Z,2.90
2022-08-10T12:16:41.120Z,2.85
2022-08-10T12:18:18.325Z,2.45
2022-08-10T12:20:03.283Z,2.42
2022-08-10T12:21:41.769Z,2.78
2022-08-10T12:23:20.552Z,2.80
2022-08-10T12:24:58.923Z,2.55
2022-08-10T12:26:38.927Z,2.30
2022-08-10T12:28:17.758Z,2.45
2022-08-10T12:29:57.960Z,2.80
2022-08-10T12:31:38.802Z,2.40
2022-08-10T12:33:20.754Z,2.40
2022-08-10T12:35:01.253Z,2.85
2022-08-10T12:36:41.436Z,2.42
2022-08-10T12:38:22.002Z,2.50
2022-08-10T12:40:33.430Z,2.45
2022-08-10T12:42:06.114Z,2.50
2022-08-10T12:44:04.753Z,2.53
2022-08-10T12:45:41.011Z,2.13
2022-08-10T12:47:21.189Z,2.33
2022-08-10T12:49:04.060Z,2.35
2022-08-10T12:50:44.014Z,2.60
2022-08-10T12:52:21.373Z,2.53
2022-08-10T12:53:58.403Z,2.47
2022-08-10T12:55:33.407Z,2.70
2022-08-10T12:57:11.018Z,2.80
2022-08-10T12:58:59.275Z,2.72
2022-08-10T13:00:41.602Z,2.60
2022-08-10T13:02:30.617Z,2.78
2022-08-10T13:04:21.479Z,2.40
2022-08-10T13:06:02.868Z,2.55
2022-08-10T13:08:25.327Z,2.20
2022-08-10T13:09:32.626Z,2.60
2022-08-10T13:12:34.083Z,2.10
2022-08-10T13:13:03.622Z,2.35
2022-08-10T13:14:41.055Z,2.67
2022-08-10T13:16:14.800Z,2.45
2022-08-10T13:17:52.689Z,2.08
2022-08-10T13:19:29.064Z,2.30
2022-08-10T13:21:24.486Z,2.17
2022-08-10T13:23:01.043Z,2.38
2022-08-10T13:24:39.268Z,2.28
2022-08-10T13:26:16.024Z,2.22
2022-08-10T13:28:02.410Z,2.20
2022-08-10T13:29:52.871Z,2.40
2022-08-10T13:32:10.026Z,2.40
2022-08-10T13:34:40.043Z,2.20
2022-08-10T13:35:23.419Z,2.10
2022-08-10T13:37:02.441Z,2.35
2022-08-10T13:38:36.265Z,1.90
2022-08-10T13:40:12.853Z,2.25
2022-08-10T13:41:48.044Z,2.00
2022-08-10T13:43:22.281Z,2.00
2022-08-10T13:44:57.295Z,2.20
2022-08-10T13:46:32.214Z,2.22
2022-08-10T13:48:14.189Z,1.90
2022-08-10T13:49:50.308Z,2.22
2022-08-10T13:51:54.049Z,2.00
2022-08-10T13:53:21.923Z,2.72
2022-08-10T13:54:57.160Z,2.22
2022-08-10T13:56:32.890Z,2.20
2022-08-10T13:58:06.843Z,2.17
2022-08-10T14:00:36.267Z,2.28
2022-08-10T14:01:50.672Z,2.38
2022-08-10T14:03:25.436Z,2.40
2022-08-10T14:04:59.826Z,2.20
2022-08-10T14:06:34.566Z,2.28
2022-08-10T14:08:13.341Z,2.22
2022-08-10T14:09:50.546Z,2.40
2022-08-10T14:11:25.542Z,2.22
2022-08-10T14:13:03.109Z,2.25
2022-08-10T14:14:38.427Z,2.22
2022-08-10T14:16:11.993Z,2.05
2022-08-10T14:17:48.852Z,2.38
2022-08-10T14:19:25.148Z,1.85
2022-08-10T14:20:59.512Z,2.13
2022-08-10T14:22:34.468Z,2.35
2022-08-10T14:24:19.947Z,2.30
2022-08-10T14:25:57.527Z,1.95
2022-08-10T14:28:02.144Z,2.17
2022-08-10T14:29:27.488Z,2.28
2022-08-10T14:31:05.274Z,2.00
2022-08-10T14:32:46.121Z,2.50
2022-08-10T14:34:20.929Z,2.30
2022-08-10T14:36:24.389Z,2.33
2022-08-10T14:38:01.509Z,1.98
2022-08-10T14:39:42.614Z,2.20
2022-08-10T14:42:04.400Z,2.25
2022-08-10T14:43:28.908Z,2.00
2022-08-10T14:45:08.134Z,2.05
2022-08-10T14:46:47.065Z,2.17
2022-08-10T14:48:31.789Z,2.08
2022-08-10T14:50:08.610Z,2.28
2022-08-10T14:51:45.167Z,2.42
2022-08-10T14:53:20.808Z,2.28
2022-08-10T14:55:05.604Z,2.40
2022-08-10T14:56:54.864Z,2.28
2022-08-10T14:58:30.781Z,2.40
2022-08-10T15:00:25.031Z,2.10
2022-08-10T15:02:39.038Z,2.40
2022-08-10T15:04:02.784Z,2.50
2022-08-10T15:05:39.561Z,2.50
2022-08-10T15:07:25.876Z,2.40
2022-08-10T15:09:05.209Z,2.33
2022-08-10T15:10:51.123Z,3.13
2022-08-10T15:12:27.527Z,2.30
2022-08-10T15:14:41.156Z,2.37
2022-08-10T15:16:12.178Z,2.30
2022-08-10T15:17:50.988Z,2.27
2022-08-10T15:20:00.677Z,2.27
2022-08-10T15:21:29.080Z,2.53
2022-08-10T15:23:30.630Z,2.40
2022-08-10T15:25:04.794Z,2.23
2022-08-10T15:26:38.784Z,2.40
2022-08-10T15:28:31.388Z,2.23
2022-08-10T15:30:20.321Z,2.60
2022-08-10T15:32:11.391Z,2.30
2022-08-10T15:34:05.663Z,2.50
2022-08-10T15:35:58.051Z,2.30
2022-08-10T15:37:54.544Z,2.30
2022-08-10T15:40:24.726Z,2.47
2022-08-10T15:41:59.483Z,2.47
2022-08-10T15:43:34.441Z,2.20
2022-08-10T15:45:18.553Z,2.50
2022-08-10T15:46:57.648Z,2.20
2022-08-10T15:48:39.977Z,2.63
2022-08-10T15:50:18.499Z,2.20
2022-08-10T15:51:58.365Z,2.50
2022-08-10T15:53:49.851Z,2.10
2022-08-10T15:55:42.928Z,2.33
2022-08-10T15:57:21.939Z,2.27
2022-08-10T15:59:10.577Z,2.80
2022-08-10T16:00:50.159Z,2.20
2022-08-10T16:02:28.343Z,2.40
2022-08-10T16:04:08.316Z,2.70
2022-08-10T16:06:01.680Z,2.27
2022-08-10T16:07:46.074Z,2.60
2022-08-10T16:10:22.253Z,2.13
2022-08-10T16:11:25.379Z,2.43
2022-08-10T16:13:01.862Z,2.50
2022-08-10T16:14:39.205Z,2.50
2022-08-10T16:16:16.673Z,2.40
2022-08-10T16:17:54.589Z,2.47
2022-08-10T16:19:30.682Z,2.50
2022-08-10T16:21:07.021Z,2.37
2022-08-10T16:22:40.482Z,2.47
2022-08-10T16:24:16.358Z,2.00
2022-08-10T16:25:58.351Z,2.40
2022-08-10T16:27:38.231Z,2.20
2022-08-10T16:29:13.686Z,2.33
2022-08-10T16:30:51.648Z,2.20
2022-08-10T16:32:26.487Z,2.30
2022-08-10T16:34:01.629Z,2.40
2022-08-10T16:35:36.216Z,2.40
2022-08-10T16:37:12.160Z,3.00
2022-08-10T16:38:48.737Z,2.50
2022-08-10T16:40:23.880Z,2.50
2022-08-10T16:42:06.075Z,2.50
2022-08-10T16:43:40.160Z,2.30
2022-08-10T16:45:16.030Z,2.43
2022-08-10T16:46:51.272Z,2.90
2022-08-10T16:48:50.063Z,2.53
2022-08-10T16:50:25.374Z,2.70
2022-08-10T16:51:59.587Z,2.60
2022-08-10T16:53:36.419Z,2.57
2022-08-10T16:55:23.361Z,2.40
2022-08-10T16:57:02.784Z,2.70
2022-08-10T16:58:39.131Z,2.53
2022-08-10T17:00:13.913Z,2.53
2022-08-10T17:01:51.546Z,2.40
2022-08-10T17:04:05.589Z,2.40
2022-08-10T17:06:01.765Z,2.60
2022-08-10T17:07:30.730Z,2.80
2022-08-10T17:09:07.949Z,2.70
2022-08-10T17:10:42.220Z,2.60
2022-08-10T17:12:18.337Z,2.90
2022-08-10T17:13:54.929Z,2.80
2022-08-10T17:15:28.445Z,2.93
2022-08-10T17:17:07.467Z,3.00
2022-08-10T17:18:46.633Z,2.57
2022-08-10T17:20:31.024Z,2.47
2022-08-10T17:22:12.479Z,2.60
2022-08-10T17:23:49.143Z,2.40
2022-08-10T17:25:24.966Z,3.33
2022-08-10T17:28:05.031Z,2.80
2022-08-10T17:29:57.941Z,2.53
2022-08-10T17:31:42.894Z,2.93
2022-08-10T17:33:16.097Z,2.60
2022-08-10T17:34:57.105Z,2.40
2022-08-10T17:36:36.615Z,2.67
2022-08-10T17:38:11.895Z,2.50
2022-08-10T17:39:49.842Z,2.60
2022-08-10T17:41:25.131Z,2.27
2022-08-10T17:42:59.310Z,2.50
2022-08-10T17:44:36.723Z,2.60
2022-08-10T17:46:12.653Z,2.77
2022-08-10T17:47:49.558Z,2.30
2022-08-10T17:49:22.950Z,2.83
2022-08-10T17:50:59.167Z,2.40
2022-08-10T17:52:34.187Z,2.83
2022-08-10T17:54:10.247Z,2.87
2022-08-10T17:55:47.036Z,2.77
2022-08-10T17:57:22.272Z,2.50
2022-08-10T17:58:59.266Z,2.60
2022-08-10T18:00:33.916Z,2.50
2022-08-10T18:02:10.232Z,2.67
2022-08-10T18:03:44.173Z,2.80
2022-08-10T18:05:18.749Z,2.67
2022-08-10T18:06:58.464Z,2.63
2022-08-10T18:08:35.713Z,2.83
2022-08-10T18:10:11.677Z,2.87
2022-08-10T18:11:48.802Z,3.00
2022-08-10T18:13:22.918Z,2.77
2022-08-10T18:14:57.609Z,2.70
2022-08-10T18:16:33.179Z,3.40
2022-08-10T18:18:16.360Z,3.23
2022-08-10T18:19:55.413Z,2.90
2022-08-10T18:21:32.046Z,2.70
2022-08-10T18:23:08.856Z,3.17
2022-08-10T18:24:44.317Z,3.37
2022-08-10T18:26:21.040Z,3.13
2022-08-10T18:28:03.795Z,3.57
2022-08-10T18:29:42.924Z,2.87
2022-08-10T18:31:21.298Z,2.67
2022-08-10T18:32:57.369Z,3.17
2022-08-10T18:34:32.585Z,3.27
2022-08-10T18:36:08.691Z,2.80
2022-08-10T18:37:42.599Z,3.20
2022-08-10T18:39:22.893Z,3.10
2022-08-10T18:41:05.826Z,3.27
2022-08-10T18:42:47.287Z,3.00
2022-08-10T18:44:21.874Z,3.00
2022-08-10T18:45:57.604Z,3.53
2022-08-10T18:47:34.764Z,3.63
2022-08-10T18:49:13.219Z,3.20
2022-08-10T18:50:50.910Z,3.30
2022-08-10T18:52:27.802Z,3.20
2022-08-10T18:54:07.847Z,3.10
2022-08-10T18:56:12.609Z,3.00
2022-08-10T18:58:05.403Z,3.10
2022-08-10T19:00:08.663Z,3.10
2022-08-10T19:02:02.583Z,3.43
2022-08-10T19:03:54.655Z,2.93
2022-08-10T19:05:37.905Z,3.00
2022-08-10T19:07:31.439Z,2.90
2022-08-10T19:09:47.310Z,3.40
2022-08-10T19:11:18.783Z,3.00
2022-08-10T19:12:55.952Z,3.10
2022-08-10T19:14:35.841Z,3.20
2022-08-10T19:16:15.143Z,3.50
2022-08-10T19:18:06.463Z,3.33
2022-08-10T19:19:47.136Z,3.40
2022-08-10T19:21:24.293Z,2.90
2022-08-10T19:23:06.255Z,3.30
2022-08-10T19:24:49.248Z,3.27
2022-08-10T19:26:42.038Z,3.43
2022-08-10T19:28:44.562Z,3.70
2022-08-10T19:30:19.976Z,3.30
2022-08-10T19:31:59.852Z,3.47
2022-08-10T19:33:44.209Z,3.57
2022-08-10T19:35:26.167Z,3.47
2022-08-10T19:37:08.288Z,3.83
2022-08-10T19:38:50.901Z,3.80
2022-08-10T19:40:44.169Z,3.83
2022-08-10T19:42:31.191Z,3.70
2022-08-10T19:44:13.263Z,3.60
2022-08-10T19:46:02.385Z,3.93
2022-08-10T19:47:43.293Z,3.90
2022-08-10T19:49:28.597Z,3.87
2022-08-10T19:51:07.701Z,4.37
2022-08-10T19:52:49.421Z,3.97
2022-08-10T19:54:33.875Z,4.17
2022-08-10T19:56:33.197Z,3.83
2022-08-10T19:58:20.916Z,3.90
2022-08-10T20:00:16.680Z,3.17
2022-08-10T20:01:56.218Z,4.40
2022-08-10T20:03:38.483Z,3.80
2022-08-10T20:05:16.490Z,3.80
2022-08-10T20:06:58.250Z,3.90
2022-08-10T20:08:36.768Z,3.60
2022-08-10T20:10:15.931Z,3.97
2022-08-10T20:11:57.710Z,3.67
2022-08-10T20:13:44.950Z,3.80
2022-08-10T20:15:27.021Z,3.40
2022-08-10T20:17:04.282Z,3.90
2022-08-10T20:18:40.484Z,3.50
2022-08-10T20:20:15.524Z,3.73
2022-08-10T20:21:56.828Z,3.60
2022-08-10T20:23:34.972Z,3.30
2022-08-10T20:25:14.510Z,3.23
2022-08-10T20:26:54.075Z,2.97
2022-08-10T20:28:42.521Z,3.40
2022-08-10T20:30:16.771Z,3.40
2022-08-10T20:31:57.713Z,3.20
2022-08-10T20:33:35.528Z,2.90
2022-08-10T20:35:13.145Z,3.53
2022-08-10T20:36:57.002Z,3.20
2022-08-10T20:38:44.405Z,3.40
2022-08-10T20:40:24.418Z,3.40
2022-08-10T20:42:03.953Z,3.13
2022-08-10T20:43:48.403Z,3.20
2022-08-10T20:45:41.566Z,3.30
2022-08-10T20:47:36.093Z,3.83
2022-08-10T20:49:20.345Z,3.87
2022-08-10T20:50:58.689Z,4.13
2022-08-10T20:52:34.920Z,4.23
2022-08-10T20:54:12.188Z,3.97
2022-08-10T20:55:55.960Z,4.20
2022-08-10T20:57:55.608Z,4.10
2022-08-10T21:00:04.014Z,4.33
2022-08-10T21:02:06.183Z,3.53
2022-08-10T21:03:59.565Z,3.57
2022-08-10T21:05:42.043Z,3.80
2022-08-10T21:07:50.602Z,3.77
2022-08-10T21:10:00.010Z,3.60
2022-08-10T21:11:43.758Z,3.50
2022-08-10T21:13:45.622Z,3.43
2022-08-10T21:15:41.669Z,3.47
2022-08-10T21:17:37.405Z,4.07
2022-08-10T21:19:36.102Z,3.50
2022-08-10T21:21:41.842Z,3.87
2022-08-10T21:23:17.705Z,3.10
2022-08-10T21:24:59.410Z,3.33
2022-08-10T21:26:49.045Z,3.30
2022-08-10T21:28:44.816Z,3.67
2022-08-10T21:30:44.759Z,3.60
2022-08-10T21:32:24.525Z,4.90
2022-08-10T21:34:17.841Z,3.90
2022-08-10T21:35:56.306Z,3.80
2022-08-10T21:37:39.955Z,4.00
2022-08-10T21:39:22.060Z,3.80
2022-08-10T21:41:57.934Z,4.37
2022-08-10T21:43:59.010Z,5.30
2022-08-10T21:46:02.286Z,4.43
2022-08-10T21:48:17.233Z,3.90
2022-08-10T21:50:16.573Z,3.70
2022-08-10T21:52:16.165Z,3.87
2022-08-10T21:54:13.035Z,3.60
2022-08-10T21:56:14.393Z,3.30
2022-08-10T21:58:11.349Z,9.07
2022-08-10T22:00:11.254Z,5.30
2022-08-10T22:02:09.258Z,4.23
2022-08-10T22:04:01.423Z,5.50
2022-08-10T22:05:55.291Z,5.77
2022-08-10T22:07:49.176Z,4.73
2022-08-10T22:09:45.548Z,3.57
2022-08-10T22:11:38.425Z,3.90
2022-08-10T22:13:32.627Z,3.90
2022-08-10T22:16:03.878Z,3.60
2022-08-10T22:18:00.939Z,3.13
2022-08-10T22:20:00.579Z,3.63
2022-08-10T22:22:04.348Z,4.00
2022-08-10T22:24:19.262Z,3.77
2022-08-10T22:26:19.579Z,3.43
2022-08-10T22:28:15.713Z,4.13
2022-08-10T22:30:13.672Z,3.80
2022-08-10T22:32:19.514Z,4.30
2022-08-10T22:34:22.001Z,3.70
2022-08-10T22:36:42.355Z,3.70
2022-08-10T22:38:42.270Z,3.60
2022-08-10T22:40:37.328Z,4.03
2022-08-10T22:42:59.021Z,4.00
2022-08-10T22:44:53.885Z,3.53
2022-08-10T22:46:48.942Z,3.70